Logs | Multi-Operator: Kiwi SDR, Olomouc - Pohorany, CZE - JN89qq
Paging Controls
Log ID Operator
(If Remote)
Date UTC KHz ID Location S/P ITU Region GSQ LSB USB Sec. Fmt. Power KM Miles Deg
2497570 Zdenek Elias 2024-05-26 2231 309 LG Satenas / Tune SWE eu JO68ik 1019 633 344
2497581 Zdenek Elias 2024-05-26 0228 318 KLP Dubrovnik / Kolocep HRV eu JN92aq 50 780 485 175
2497564 Zdenek Elias 2024-05-26 0226 297 PNY Piestany SVK eu JN88vo 124 77 165
2497557 Zdenek Elias 2024-05-26 0148 291 KZN Kozani / Filippos GRC eu KN00wg 1105 686 159
2497554 Zdenek Elias 2024-05-26 0146 288.5 AVD Avord FRA eu JN17jc 50 1112 691 260
2497575 Zdenek Elias 2024-05-26 0121 312.5 DB Doobskiy / Mys Doob RUS eu KN84wp 1642 1020 102
2497574 Zdenek Elias 2024-05-26 0115 312 DAN Danilvograd For Podgorica MNE eu JN92nn 804 499 169
2497561 Zdenek Elias 2024-05-26 0058 295 F Sliac / Hajniky SVK eu JN98no 175 109 132
2497560 Zdenek Elias 2024-05-26 0056 295 DC Debrecen HNG eu KN07sk 396 246 127
2497548 Zdenek Elias 2024-05-26 0040 282 NF Minsk Mazowiecki / Faktor POL eu KO02ue 412 256 45
2497576 Zdenek Elias 2024-05-25 2137 316 TNJ Tounj HRV eu JN75qg 514 319 197
2497547 Zdenek Elias 2024-05-24 2243 275 O UNID XUF xx
2497563 Zdenek Elias 2024-05-24 2223 297 FR Frankfurt DEU eu JO40ib 25 622 387 277
2497550 Zdenek Elias 2024-05-24 2216 284.5 DY Dusseldorf DEU eu JO31if 25 774 481 286
2497556 Zdenek Elias 2024-05-24 2210 290 ONL Liege / Bierset BEL eu JO20sq 15 849 527 282
2497578 Zdenek Elias 2024-05-24 2204 317 PPD Poprad / Tatry SVK eu KN09eb 228 142 106
2497580 Zdenek Elias 2024-05-24 2202 318 HIG Bremen DEU eu JO43kb 25 698 434 305
2497579 Zdenek Elias 2024-05-24 2200 318 OTR Bucuresti / Otopeni ROU eu KN34co 874 543 126
2497573 Zdenek Elias 2024-05-24 2156 312 BOZ Bozhurishte BUL eu KN12os 890 553 147
2497572 Zdenek Elias 2024-05-24 2151 311 CEL Celle DEU eu JO52ao 25 605 376 305
2497577 Zdenek Elias 2024-05-24 2150 317 VS Valenciennes / Denain FRA eu JO10qi 1001 622 279
2497569 Zdenek Elias 2024-05-24 2144 309 DO Dole / Tavaux FRA eu JN26px 941 585 255
2497568 Zdenek Elias 2024-05-24 2141 303 RTT Innsbruck / Rattenberg AUT eu JN57xk 470 292 239
2497566 Zdenek Elias 2024-05-24 2137 300 PV Novi Sad / Cenej / Petrovaradin SRB eu JN95rd 529 328 161
2497565 Zdenek Elias 2024-05-24 2136 300 KD Kbely / Praha East CZE eu JO70hd 203 126 285
2497562 Zdenek Elias 2024-05-24 2131 297 PEP Prilep MKD eu KN01ri 979 608 159
2497559 Zdenek Elias 2024-05-24 2127 295 PT Skopje MKD eu KN01tv 50 926 576 157
2497558 Zdenek Elias 2024-05-24 2124 292 NKR Neckar DEU eu JN49ii 25 626 389 269
2497555 Zdenek Elias 2024-05-24 2120 291 WS Grenoble / St Geoirs FRA eu JN25ni 1037 644 246
2497553 Zdenek Elias 2024-05-24 2117 289 RI Rijeka / Krk HRV eu JN75hd 546 339 203
2497552 Zdenek Elias 2024-05-24 2110 289 HR Hericourt FRA eu JN37in 25 818 508 257
2497571 Zdenek Elias 2024-05-24 2049 311 LMA Lima / Bruggen DEU eu JO31ei 25 799 496 287
2497549 Zdenek Elias 2024-05-24 2006 284 GNA Gorna BUL eu KN23td 963 598 135
2412126 Zdenek Elias 2023-07-30 2305 364 NW Stockholm / Skavsta / Nykoping SWE eu JO88js 1011 628 358
2412121 Zdenek Elias 2023-07-30 2300 362 BVK Orsta-Volda / Hovden / Baatvik NOR eu JP22vf 1564 972 337
2412092 Zdenek Elias 2023-07-30 2255 352.5 DD Oostende BEL eu JO11ke 100 1039 645 284
2412084 Zdenek Elias 2023-07-30 2253 350 UK Yukhnov RUS eu KO74or 1333 828 58
2412129 Zdenek Elias 2023-07-30 2241 365 RB Ajaccio / Campo del Oro COR eu JN41jw 1087 675 220
2412094 Zdenek Elias 2023-07-30 2239 353 SB St. Brieuc / Armor FRA eu IN88on 1468 912 272
2412102 Zdenek Elias 2023-07-30 2213 356 CVU Castres / Mazamet FRA eu JN13cp 1335 829 245
2412105 Zdenek Elias 2023-07-30 2209 357 RJ Tripoli / Mitiga LBY af JM62qv 1896 1178 191
2412116 Zdenek Elias 2023-07-30 2204 360 TS Zadonsk RUS eu KO92lj 1533 952 70
2412104 Zdenek Elias 2023-07-30 2159 357 KD Kolding / Vamdrup DNK eu JO45qk 836 520 322
2412137 Zdenek Elias 2023-07-30 2144 369 NL Goteborg / Landvetter SWE eu JO67er 952 592 341
2412130 Zdenek Elias 2023-07-30 2127 366 KM Kalmar SWE eu JO86cr 787 489 354
2412125 Zdenek Elias 2023-07-30 2123 364 PU Pau / Pyrenees FRA eu IN93uh 1521 945 248
2412088 Zdenek Elias 2023-07-30 2042 352 LAA Niederrhein DEU eu JO31co 45 815 506 289
2412128 Zdenek Elias 2023-07-30 2014 365 LJ Koln / Bonn DEU eu JO30mw 25 746 464 284
2412097 Zdenek Elias 2023-07-30 1954 354 PAD Paderborn / Lippstadt DEU eu JO41ho 25 652 405 292
2412093 Zdenek Elias 2023-07-30 1950 353 KIL Kiel / Holtenau DEU eu JO54bi 25 717 446 319
2412133 Zdenek Elias 2023-07-28 2327 368 BYC Buckeburg DEU eu JO42ng 645 400 299
2412115 Zdenek Elias 2023-07-28 2319 360 LA Kraljevo SRB eu KN03gu 692 430 158
2412120 Zdenek Elias 2023-07-28 2254 362 RU Sevastopol - Belbek UKR eu KN64tq 1344 835 108
2412111 Zdenek Elias 2023-07-28 2243 358 HW Hannover / West DEU eu JO42sl 25 629 391 302
2412100 Zdenek Elias 2023-07-28 2240 355 ONW Antwerpen / Deurne BEL eu JO21ge 923 573 285
2412103 Zdenek Elias 2023-07-28 2237 357 SKZ Leipzig / Halle DEU eu JO61dj 406 252 299
2412106 Zdenek Elias 2023-07-28 2236 357.5 KG Sarajevo / Butmir / Kobiljaca BIH eu JN93cv 647 402 174
2412136 Zdenek Elias 2023-07-28 2226 369 VRS Vrsar HRV eu JN65tf 570 354 211
2412135 Zdenek Elias 2023-07-28 2224 369 MNE Munchen DEU eu JN58ui 25 439 273 252
2412134 Zdenek Elias 2023-07-28 2223 369 CM Avignon / Caumont FRA eu JN23kv 25 1147 712 240
2412132 Zdenek Elias 2023-07-28 2207 368 TLB Toulouse / Blagnac FRA eu JN03rw 1366 849 248
2412127 Zdenek Elias 2023-07-28 2201 365 L Karlovy Vary / Vrata CZE eu JO60le 321 199 281
2412131 Zdenek Elias 2023-07-28 2200 367 VAT Chalon / Vatry FRA eu JN28at 971 604 269
2412124 Zdenek Elias 2023-07-28 2158 363 CIG Izmir / Cigli / Kaklic TUR as KM38mm 25 1459 907 144
2412123 Zdenek Elias 2023-07-28 2151 363 PI Poitiers / Biard FRA eu JN06eq 50 1300 808 261
2412122 Zdenek Elias 2023-07-28 2149 363 OEM Kristianstad / Everod SWE eu JO75bx 733 455 343
2412119 Zdenek Elias 2023-07-28 2148 362 L Namest nad Oslavou CZE eu JN89cf 99 61 239
2412112 Zdenek Elias 2023-07-28 2144 359 LOR Lorient / Lann Bihoue FRA eu IN87gs 100 1538 955 270
2412110 Zdenek Elias 2023-07-28 2142 359 RK Cerklje SVN eu JN75qv 447 278 200
2412117 Zdenek Elias 2023-07-28 2139 360.5 MAK Mackel for Brussels Ntl BEL eu JO10rx 997 619 283
2412118 Zdenek Elias 2023-07-28 2138 361 NB Bordeaux / Merignac FRA eu IN95rd 25 1435 892 256
2412114 Zdenek Elias 2023-07-28 2137 360 BD Bogdanovo RUS eu KO87uc 1571 976 50
2412109 Zdenek Elias 2023-07-28 2133 358 MSE Munchen DEU eu JN58th 25 446 277 252
2412113 Zdenek Elias 2023-07-28 2130 360 O Oradea ROU eu KN07wb 442 275 129
2412108 Zdenek Elias 2023-07-28 2128 358 RNN Roanne / Renaison FRA eu JN26ac 1069 664 253
2412107 Zdenek Elias 2023-07-28 2125 358 TUN Tulln for Schwechat AUT eu JN78xh 185 115 214
2412101 Zdenek Elias 2023-07-28 2124 356 SGO Sagunto ESP eu IM99vq 300 1772 1101 237
2412099 Zdenek Elias 2023-07-28 2119 355 MI Maribor SVN eu JN76ul 75 378 235 199
2412096 Zdenek Elias 2023-07-28 2117 354 MTZ Metz / Nancy-Lorraine FRA eu JN39cg 807 502 270
2412098 Zdenek Elias 2023-07-28 2113 355 OBR Beograd / Obrenovac SRB eu KN04bp 50 598 371 158
2412095 Zdenek Elias 2023-07-28 2109 354 NG Nimes / Garons FRA eu JN23eu 25 1181 734 241
2412091 Zdenek Elias 2023-07-28 2107 352 NT Newcastle ENG eu IO95eb 90 1415 879 302
2412090 Zdenek Elias 2023-07-28 2105 352 SL UNID XUU xx
2412082 Zdenek Elias 2023-07-28 2100 350 SK Zagreb / Pleso / S. Kraljevec HRV eu JN85bt 441 274 192
2412089 Zdenek Elias 2023-07-28 2042 351.5 PLA Pula HRV eu JN64vv 2000 597 371 208
2412087 Zdenek Elias 2023-07-28 2040 351 ISI Iasi ROU eu KN37sf 797 495 106
2412086 Zdenek Elias 2023-07-28 2039 351 CST Costix for Palma De Mallorca BAL eu JM19kp 65 1595 991 231
2412085 Zdenek Elias 2023-07-28 2037 351 BSC Brive / Souillac FRA eu JN05ta 1292 803 252
2412083 Zdenek Elias 2023-07-28 2035 350 DWN Devnya For Varna BUL eu KN33tf 1062 660 128
2356028 Zdenek Elias 2022-11-27 2215 390 SS Skovde SWE eu JO68wh 986 612 347
2356036 Zdenek Elias 2022-11-27 2149 393 RST Rasht IRN as LM47th 2911 1809 105
2356044 Zdenek Elias 2022-11-27 2145 395 OB Marseille / Provence FRA eu JN23tf 25 1149 714 235
2356045 Zdenek Elias 2022-11-27 2143 395 TBS Tabas IRN as LM83kp 3676 2284 103
2356018 Zdenek Elias 2022-11-27 2133 387 AV Asturias / Aviles ESP eu IN73am 20 1900 1181 257
2356060 Zdenek Elias 2022-11-27 2127 399 EAG Logrono / Agoncillo ESP eu IN82uk 25 1711 1063 249
2356026 Zdenek Elias 2022-11-27 2044 389 ZRZ Zaragoza ESP eu IN91jr 300 1686 1047 245
2356022 Zdenek Elias 2022-11-26 2254 388 LOU Metz / Nancy-Lorraine - Louvigny FRA eu JN38cx 812 505 268
2356057 Zdenek Elias 2022-11-26 2231 398 MT St Nazaire / Montoir FRA eu IN87xi 50 1449 900 267
2356014 Zdenek Elias 2022-11-26 2141 385 CSC Cannes / Ile de Leirins FRA eu JN33mm 1044 649 232
2356053 Zdenek Elias 2022-11-25 2305 397 LZD Lydd ENG eu JO00lx 12 1171 728 283
2356043 Zdenek Elias 2022-11-25 2257 395 B Bilbao ESP eu IN83li 1706 1060 253
2356059 Zdenek Elias 2022-11-25 2235 399 FM Trollhattan / Vanersborg SWE eu JO68di 1019 633 343
2356023 Zdenek Elias 2022-11-25 2214 388.5 CDF Cardiff WLS eu IO81hj 10 1473 915 285
2356056 Zdenek Elias 2022-11-25 2155 398 ESS Kokkola-Pietarsaari /Kruunupyy / Esse FIN eu KP13np 1590 988 10
2356021 Zdenek Elias 2022-11-25 2145 388 KRU Kokkola-Pietarsaari / Kruunupyy FIN eu KP13ot 1609 1000 10
2356035 Zdenek Elias 2022-11-25 2139 393 TAT Molde / Aro / Tautra NOR eu JP32kq 1580 982 340
2356013 Zdenek Elias 2022-11-25 2120 385 MSD Mashhad IRN as LM96tf 500 3689 2292 97
2356052 Zdenek Elias 2022-11-25 2103 397 UM Tartu / Ulenurme EST eu KO38jh 1137 707 28
2356051 Zdenek Elias 2022-11-25 2058 397 PO Pau / Pyrenees FRA eu IN93wh 1510 938 248
2356041 Zdenek Elias 2022-11-25 2036 394 DND Dundee SCT eu IO86kk 25 1553 965 306
2356032 Zdenek Elias 2022-11-25 2027 391 BV Beauvais / Tille FRA eu JN19al 20 1104 686 274
2356025 Zdenek Elias 2022-11-25 2021 389 HN Orsta-Volda / Hovden NOR eu JP32ad 1550 963 337
2356024 Zdenek Elias 2022-11-25 2015 389 PX Perigueux / Bassillac FRA eu JN05ke 25 1334 829 254
2356020 Zdenek Elias 2022-11-25 2010 388 COR Corner for Bromma SWE eu JO89rg 1066 662 0
2356017 Zdenek Elias 2022-11-25 1952 387 AD Kraljevo SRB eu KN03hs 703 437 158
2356015 Zdenek Elias 2022-11-25 1943 386.5 SLV Spa / La Sauveniere BEL eu JO20wl 15 824 512 280
2356061 Zdenek Elias 2022-11-25 1936 399.5 ONO Oostende BEL eu JO11lf 25 1033 642 285
2356050 Zdenek Elias 2022-11-25 1927 397 ZR Beziers / Vias FRA eu JN13ph 1287 800 241
2356049 Zdenek Elias 2022-11-25 1922 397 BLB Blois / Le Breuil FRA eu JN07oq 1205 749 265
2356047 Zdenek Elias 2022-11-25 1916 396 YG Rygge / Enge NOR eu JO59ji 1154 717 341
2356040 Zdenek Elias 2022-11-25 1912 394 GDA Alexandria GRC eu KN10fp 1081 672 156
2356034 Zdenek Elias 2022-11-25 1854 393 BD Bordeaux / Merignac FRA eu IN94rw 1446 898 255
2356033 Zdenek Elias 2022-11-25 1852 392 AS Angers / Avrille FRA eu IN97wn 1305 811 266
2356016 Zdenek Elias 2022-11-25 1846 387 RZ Rodez / Marcillac FRA eu JN14fk 1269 788 248
2356048 Zdenek Elias 2022-11-25 1840 397 CV Dubrovnik / Cavtat HRV eu JN92co 790 491 175
2356055 Zdenek Elias 2022-11-25 1741 398 PEO Stockhlom / Skavsta / Peola SWE eu JO88mt 1015 631 358
2356042 Zdenek Elias 2022-11-25 1735 395 FC Figeac / Livernon FRA eu JN04vq 1299 807 250
2356039 Zdenek Elias 2022-11-25 1732 394 LYE Lubeck / Blanckensee DEU eu JO53it 648 403 317
2356030 Zdenek Elias 2022-11-25 1726 390.5 ITR Istres / Le Tube FRA eu JN23lm 1168 726 238
2356031 Zdenek Elias 2022-11-25 1724 391 CC Chalon / Champforgeuil FRA eu JN26kr 981 610 255
2356019 Zdenek Elias 2022-11-25 1721 388 BR Lyon / Bron FRA eu JN25lo 1033 642 248
2356038 Zdenek Elias 2022-11-25 1640 394 NV Nevers / Fourchambault FRA eu JN16ow 1089 677 259
2356012 Zdenek Elias 2022-11-25 1627 385 BO Zadar / Bokanjac HRV eu JN74pe 40 632 392 195
2356058 Zdenek Elias 2022-11-25 1624 399 KMN Burgas / Kamenar BUL eu KN32tp 1110 690 130
2356054 Zdenek Elias 2022-11-25 1620 398 LRN Lorquin / Xouaxange FRA eu JN38lq 764 475 265
2356046 Zdenek Elias 2022-11-25 1616 396 RON Ronchi dei Legionari (GO) ITA eu JN65qt 25 524 326 216
2356037 Zdenek Elias 2022-11-25 1614 394 IZA Ibiza BAL eu JM08rv 200 1738 1080 232
2356029 Zdenek Elias 2022-11-25 1611 391 OKR Bratislava / M.R Stefanik / North SVK eu JN88pf 2000 162 101 182
2356027 Zdenek Elias 2022-11-25 1608 390 VAL Valjevo SRB eu JN94wh 627 390 161
2356011 Zdenek Elias 2022-11-25 1606 385 AVN Vilnius LTU eu KO24pp 771 479 41
2356010 Zdenek Elias 2022-11-25 1604 385 NWT Leczyca POL eu JO91ox 285 177 26
2316551 2022-05-30 0216 369 NL Goteborg / Landvetter SWE eu JO67er 952 592 341
2316540 2022-05-30 0213 365 RB Ajaccio / Campo del Oro COR eu JN41jw 1087 675 220
2316537 2022-05-30 0211 364 PU Pau / Pyrenees FRA eu IN93uh 1521 945 248
2316535 2022-05-30 0210 363 CIG Izmir / Cigli / Kaklic TUR as KM38mm 25 1459 907 144
2316536 2022-05-30 0208 364 NW Stockholm / Skavsta / Nykoping SWE eu JO88js 1011 628 358
2316517 2022-05-30 0155 357 KD Kolding / Vamdrup DNK eu JO45qk 836 520 322
2316516 2022-05-30 0153 357 LP Cholet / Le Pontreau FRA eu IN97nd 1372 853 265
2316512 2022-05-29 2355 355 ARB Ardabil IRN as LM48eh 2756 1713 105
2316546 2022-05-29 2349 368 TLB Toulouse / Blagnac FRA eu JN03rw 1366 849 248
2316543 2022-05-29 2347 367 ASM Clermont-Ferrand / Auvergne FRA eu JN15qt 1130 702 252
2316528 2022-05-29 0029 360 LA Kraljevo SRB eu KN03gu 692 430 158
2316518 2022-05-29 0023 357.5 KG Sarajevo / Butmir / Kobiljaca BIH eu JN93cv 647 402 174
2316522 2022-05-29 0021 358 RNN Roanne / Renaison FRA eu JN26ac 1069 664 253
2316497 2022-05-29 0014 351 CST Costix for Palma De Mallorca BAL eu JM19kp 65 1595 991 231
2316507 2022-05-29 0011 354 NG Nimes / Garons FRA eu JN23eu 25 1181 734 241
2316502 2022-05-29 0009 352.5 DD Oostende BEL eu JO11ke 100 1039 645 284
2316542 2022-05-28 2347 367 VAT Chalon / Vatry FRA eu JN28at 971 604 269
2316539 2022-05-28 2343 365 LJ Koln / Bonn DEU eu JO30mw 25 746 464 284
2316534 2022-05-28 2338 363 OEM Kristianstad / Everod SWE eu JO75bx 733 455 343
2316532 2022-05-28 2335 362 BVK Orsta-Volda / Hovden / Baatvik NOR eu JP22vf 1564 972 337
2316501 2022-05-28 2308 352 NT Newcastle ENG eu IO95eb 90 1415 879 302
2316505 2022-05-28 2307 353 KIL Kiel / Holtenau DEU eu JO54bi 25 717 446 319
2316496 2022-05-28 2302 351 PL Perpignan / Rivesaltes FRA eu JN12lq 1352 840 240
2316544 2022-05-28 2255 368 BYC Buckeburg DEU eu JO42ng 645 400 299
2316550 2022-05-28 2253 369 CM Avignon / Caumont FRA eu JN23kv 25 1147 712 240
2316524 2022-05-28 2242 359 LOR Lorient / Lann Bihoue FRA eu IN87gs 100 1538 955 270
2316523 2022-05-28 2240 359 RK Cerklje SVN eu JN75qv 447 278 200
2316521 2022-05-28 2235 358 MSE Munchen DEU eu JN58th 25 446 277 252
2316515 2022-05-28 2234 357 SKZ Leipzig / Halle DEU eu JO61dj 406 252 299
2316513 2022-05-28 2232 356 SGO Sagunto ESP eu IM99vq 300 1772 1101 237
2316541 2022-05-28 2225 366 KM Kalmar SWE eu JO86cr 787 489 354
2316511 2022-05-28 2223 355 MI Maribor SVN eu JN76ul 75 378 235 199
2316493 2022-05-28 2220 350 UK Yukhnov RUS eu KO74or 1333 828 58
2316500 2022-05-28 2217 352 PSJ Seinajoki FIN eu KP12lp 1480 920 11
2316504 2022-05-28 2214 353 BT Ali GEO as LN12tc 2185 1358 102
2316495 2022-05-28 2207 351 BSC Brive / Souillac FRA eu JN05ta 1292 803 252
2316492 2022-05-28 2206 350 SK Zagreb / Pleso / S. Kraljevec HRV eu JN85bt 441 274 192
2316547 2022-05-28 2201 368.5 ELU Luxembourg-Berg LUX eu JN39eq 15 791 491 274
2316549 2022-05-28 2159 369 MNE Munchen DEU eu JN58ui 25 439 273 252
2316548 2022-05-28 2158 369 VRS Vrsar HRV eu JN65tf 570 354 211
2316538 2022-05-28 2155 365 L Karlovy Vary / Vrata CZE eu JO60le 321 199 281
2316533 2022-05-28 2152 363 PI Poitiers / Biard FRA eu JN06eq 50 1300 808 261
2316530 2022-05-28 2150 361 NB Bordeaux / Merignac FRA eu IN95rd 25 1435 892 256
2316527 2022-05-28 2144 360 BD Bogdanovo RUS eu KO87uc 1571 976 50
2316526 2022-05-28 2142 360 TS Zadonsk RUS eu KO92lj 1533 952 70
2316529 2022-05-28 2137 360.5 MAK Mackel for Brussels Ntl BEL eu JO10rx 997 619 283
2316520 2022-05-28 2135 358 HW Hannover / West DEU eu JO42sl 25 629 391 302
2316525 2022-05-28 2133 360 O Oradea ROU eu KN07wb 442 275 129
2316514 2022-05-28 2129 357 RJ Tripoli / Mitiga LBY af JM62qv 1896 1178 191
2316510 2022-05-28 2125 355 OBR Beograd / Obrenovac SRB eu KN04bp 50 598 371 158
2316509 2022-05-28 2122 355 ONW Antwerpen / Deurne BEL eu JO21ge 923 573 285
2316503 2022-05-28 2115 353 SB St. Brieuc / Armor FRA eu IN88on 1468 912 272
2316506 2022-05-28 2113 354 MTZ Metz / Nancy-Lorraine FRA eu JN39cg 807 502 270
2316508 2022-05-28 0016 354 PAD Paderborn / Lippstadt DEU eu JO41ho 25 652 405 292
2316499 2022-05-27 2118 352 LAA Niederrhein DEU eu JO31co 45 815 506 289
2316531 2022-05-27 2100 362 L Namest nad Oslavou CZE eu JN89cf 99 61 239
2316491 2022-05-27 2058 350 DWN Devnya For Varna BUL eu KN33tf 1062 660 128
2316519 2022-05-27 2050 358 TUN Tulln for Schwechat AUT eu JN78xh 185 115 214
2316498 2022-05-27 2044 351.5 PLA Pula HRV eu JN64vv 2000 597 371 208
2316494 2022-05-27 2042 351 ISI Iasi ROU eu KN37sf 797 495 106
2274236 2022-01-30 0628 730 AL Kaliningrad / Chkalovsk KAL eu KO04es 601 373 18
2274209 2022-01-29 2234 510 CR Cheboksary RUS eu LO36rc 2120 1317 58
2274194 2022-01-29 2211 485 N Urganch UZB as MN01hn 3431 2132 88
2274164 2022-01-29 2107 267.5 OPW Bucuresti / Otopeni ROU eu KN24xn 863 536 128
2274174 2022-01-29 1833 455 KZ Kizliar RUS eu LN33iu 2309 1435 95
2274163 2022-01-29 1728 266 M Baia Mare ROU eu KN17rp 501 311 114
2274177 2022-01-29 1713 458 LP Chernyakhovsk KAL eu KO04vo 624 388 27
2274238 2022-01-29 1703 732 KP Soltchy RUS eu KO58dd 1261 783 36
2274228 2022-01-29 1651 640 O Kiev / Borispol UKR eu KO50kh 966 600 80
2274176 2022-01-29 1618 458 QM Minsk / Machulishchi BLR eu KO33st 836 519 52
2274241 2022-01-29 1610 749 QL Kramatorsk UKR eu KN88tq 1471 914 86
2274230 2022-01-29 1607 687 R Dnipropetrovsk UKR eu KN78ni 1300 808 89
2274224 2022-01-29 1557 588 SF Simferopol UKR eu KN65xc 1345 835 105
2274243 2022-01-29 1547 825 KE Kiev / Boryspil UKR eu KO50kg 966 600 80
2274205 2022-01-29 1531 507 ND Bolshevik RUS eu LN05cs 1755 1090 95
2274212 2022-01-29 1518 518 HQ Nezhin UKR eu KO51wc 1038 645 75
2274208 2022-01-28 2232 510 LJ Gromovo RUS eu KP50br 1465 910 28
2274185 2022-01-28 2214 470 WF Wafa LBY af JL58bv 2392 1486 197
2274173 2022-01-28 2204 452 LB Balandino RSE as MO05rh 2995 1861 60
2274168 2022-01-28 2158 445 TU Tuzla BIH eu JN94fl 50 585 363 171
2274165 2022-01-28 2156 440 BHL UNID XUU xx
2274227 2022-01-28 2153 610 D UNID XUU xx
2274247 2022-01-28 2131 914 SX Moscow / Vnukovo RUS eu KO85po 1489 925 56
2274234 2022-01-28 2043 700 MR Moscow / Sheremetievo RUS eu KO85px 1502 933 54
2274217 2022-01-28 2027 522 PQ Nyíregyháza HNG eu KN08ua 367 228 118
2274218 2022-01-28 2026 525 PL Pulkovo / St.Petersburg RUS eu KO59es 1392 865 31
2274207 2022-01-28 2017 510 BL Blida ALG af JM16jm 1876 1166 224
2274203 2022-01-28 2011 493 RW Maryino RUS eu KO95cq 1547 961 56
2274201 2022-01-28 2006 490 TFR Tafaroui ALG af IM95rk 2148 1335 229
2274193 2022-01-28 1955 485 CW Krasnaya Gorbatka RUS eu LO05uu 1763 1095 57
2274189 2022-01-28 1950 478 MF Larionovo RUS eu KO96ta 1642 1020 56
2274187 2022-01-28 1946 475 PT Petrovskoye RUS eu LO01cr 1617 1005 73
2274184 2022-01-28 1943 470 BK UNID XUF xx
2274183 2022-01-28 1940 470 UZ Uzice / Ponikve SRB eu JN93wu 676 420 162
2274182 2022-01-28 1937 468 VTN Kraljevo / Vitanovac SRB eu KN03jr 50 712 442 157
2274178 2022-01-28 1935 460 AS UNID XUE xx
2274171 2022-01-28 1926 450 DL UNID XUE xx
2274170 2022-01-28 1922 450 PAD Parsabade / Moghan IRN as LM39xn 2645 1643 103
2274169 2022-01-28 1901 450 PDV Plovdiv BUL eu KN22ka 1030 640 142
2274225 2022-01-28 1850 591 RN Penza RUS eu LO23mc 1944 1208 68
2274223 2022-01-28 1753 571 P Presov / Kapusany SVK eu KN09qb 298 185 101
2274258 2022-01-28 1748 1290 BO Bohdanivka UKR eu KO50kp 966 600 78
2274199 2022-01-28 1739 489 SIL Siegen / Siegerland DEU eu JO40bq 25 667 415 283
2274192 2022-01-28 1739 485 PZ Nadym RSE as MP65ik 3577 2222 39
2274195 2022-01-28 1737 486 KL Krasnyy Sulin RUS eu LN07bv 1672 1039 88
2274191 2022-01-28 1728 485 IA Indija SRB eu KN05ab 60 552 343 157
2274181 2022-01-28 1721 468 FTZ Fritzlar DEU eu JO41pc 25 594 369 288
2274180 2022-01-28 1720 463 CL Cerklje SVN eu JN75rv 445 277 199
2274172 2022-01-28 1718 452 ANS Ansbach DEU eu JN59hh 489 304 267
2274219 2022-01-28 1657 527 TE Terbuny RUS eu KO92dd 1486 923 71
2274215 2022-01-28 1655 520 DF Mukhrani GEO as LN21gv 2262 1405 102
2274204 2022-01-28 1648 495 PA Pancevo SRB eu KN04hv 50 586 364 154
2274202 2022-01-28 1647 493 P Papa HNG eu JN87si 260 161 177
2274200 2022-01-28 1645 490 WAK Vakarel BUL eu KN12un 930 578 146
2274198 2022-01-28 1643 489 NK Poznan / Krzesiny / Kamera POL eu JO82lh 293 182 354
2274197 2022-01-28 1642 488 ILM Illesheim DEU eu JN59el 505 314 270
2274196 2022-01-28 1641 488 NPR Tomaszow-Mazowiecki / Porter POL eu KO01bn 285 177 41
2274190 2022-01-28 1639 480 AP Anapa / Vityazevo RUS eu KN85qa 1588 986 101
2274179 2022-01-28 1629 462 VI Zhitomir UKR eu KO40fb 795 494 82
2274175 2022-01-28 1627 456 SEG Szeged HNG eu KN06bg 431 268 150
2274167 2022-01-28 1625 445 WS Starokonstantinov UKR eu KN39pr 713 443 85
2274166 2022-01-28 1623 444 NRD Inowroclaw POL eu JO92eu 359 223 10
2274188 2022-01-28 1622 477 RP Malacky - Kuchyna SVK eu JN88nl 136 84 187
2274186 2022-01-28 1620 474.5 SA Darlowo POL eu JO84ek 533 331 353
2274162 2022-01-28 1618 265 KAV Pula / Kavran HRV eu JN74av 50 589 366 206
2274161 2022-01-28 1616 262 NR Inowroclaw POL eu JO92eu 359 223 10
2274216 2022-01-28 1613 521 BSW Bucuresti / Baneasa ROU eu KN24xl 869 540 128
2274214 2022-01-28 1612 520 B Bacau ROU eu KN36kn 785 488 112
2274213 2022-01-28 1611 520 NW Leczyca POL eu JO91ox 285 177 26
2274211 2022-01-28 1609 517 ARD Arad ROU eu KN06ne 479 298 142
2274210 2022-01-28 1607 514.5 LA Namest Nad Oslavou CZE eu JN89cd 104 64 234
2274206 2022-01-28 1605 508 Z Zilina / Hlinik SVK eu JN99hf 104 64 118
2274233 2022-01-28 1555 697 SM Tambov RUS eu LO02qq 1697 1054 69
2274229 2022-01-28 1552 680 BP Chelobityevo RUS eu KO85uv 1524 947 55
2274251 2022-01-28 1544 985 FK Gagarin RUS eu KO75mn 1354 841 54
2274242 2022-01-28 1541 825 KB Kiev / Boryspil UKR eu KO50kj 966 600 80
2274254 2022-01-28 1540 1055 IN Sukhotino RUS eu KO84po 1458 906 60
2274250 2022-01-28 1538 975 GD Maloye-Skuratovo RUS eu KO83mn 1419 882 64
2274249 2022-01-28 1536 960 RP Sosnovkoye RUS eu LO15nt 1849 1149 58
2274248 2022-01-28 1535 960 CY Chervonyi UKR eu KO50qb 1003 623 82
2274246 2022-01-28 1534 900 NE Nerl RUS eu KO97aa 1586 986 51
2274245 2022-01-28 1532 888 P Pardubice CZE eu JO70va 119 74 288
2274244 2022-01-28 1531 840 KR Kaliningrad / Khrabovo KAL eu KO04iv 622 386 20
2274240 2022-01-28 1530 745 BG Karmanovo RUS eu KO75ku 1357 843 52
2274239 2022-01-28 1528 733 ZK Kyiv / Zhuliany UKR eu KO50fj 936 582 80
2274237 2022-01-28 1526 732 AO Aksinyino RUS eu KO95dd 1535 954 58
2274232 2022-01-28 1524 690 SR Seredne UKR eu KN18gm 398 247 107
2274231 2022-01-28 1522 690 DM Dmytrivka UKR eu KN75ml 1401 871 102
2274222 2022-01-28 1512 570 DO UNID XUE xx
2274221 2022-01-28 1510 563 XU Namest Nad Oslavou CZE eu JN89ae 111 69 240
2274226 2022-01-28 1507 592 AG Morozovsk RUS eu LN08vi 1779 1105 85
2274220 2022-01-28 1459 534 R Ostrava / Mosnov / Rada CZE eu JN99bq 54 34 89
2274235 2022-01-28 1456 715 C Caslav CZE eu JN79rw 140 87 282
2274257 2022-01-28 1454 1290 TU Bely RUS eu KO65lu 1248 776 50
2274256 2022-01-28 1453 1285 SW Savelovo RUS eu KO86ri 1526 948 53
2274255 2022-01-28 1451 1080 AR Buzharovo RUS eu KO85jx 1473 915 54
2274253 2022-01-28 1449 1020 DK Glotayevo RUS eu KO85vd 1505 935 58
2274252 2022-01-28 1447 1005 LO Klimovsk RUS eu KO85si 1496 929 57
2154247 2021-06-27 2313 384 SLG Sligo IRL eu IO54qg 1840 1143 296
2154246 2021-06-27 2310 384 ADX Andraitx for Palma de Mallorca BAL eu JM19en 1630 1013 232
2154223 2021-06-27 2259 370.5 LB Angelholm / Barkakra SWE eu JO66ji 802 498 339
2154222 2021-06-27 2256 370 BSV Besancon / La Veze FRA eu JN37cg 865 537 256
2154221 2021-06-27 2255 370 OTL Bucuresti / Otopeni ROU eu KN34an 868 539 127
2154245 2021-06-27 2248 384 AT Annecy / Meythet FRA eu JN35au 947 588 247
2154244 2021-06-27 2246 384 IAS Iasi ROU eu KN37td 807 501 106
2154237 2021-06-27 2240 378 TRI Split / Trogir HRV eu JN83cl 50 696 432 187
2154231 2021-06-27 2231 374 DT Saki UKR eu KN65tc 1322 821 106
2154234 2021-06-27 2225 376 BS Bale / Mulhouse FRA eu JN37sn 760 472 255
2154238 2021-06-27 2224 379 EB St Etienne / Boutheon FRA eu JN25dp 1076 668 250
2154236 2021-06-27 2222 378 WSN Weser DEU eu JO43ki 715 444 308
2154235 2021-06-27 2217 376.5 ORI Orio al Serio (BG) ITA eu JN45wp 25 719 447 234
2154232 2021-06-27 2215 375 GLA Gland for Geneva / Cointrain SUI eu JN36cj 906 563 250
2154228 2021-06-27 2212 373 D Tirgu Mures ROU eu KN26el 630 392 121
2154243 2021-06-27 2207 383 NA Banja Luka BIH eu JN84pw 40 528 328 180
2154241 2021-06-27 2201 381 TST UNID XUE xx
2154240 2021-06-27 2200 381 SIB Sibiu / Turnisor ROU eu KN25bs 666 414 128
2154233 2021-06-27 2152 376 HAN Hahn DEU eu JN39px 25 723 449 276
2154230 2021-06-27 2150 374 KFT Klagenfurt AUT eu JN76go 402 250 212
2154229 2021-06-27 2149 374 FS Dresden DEU eu JO61we 299 186 305
2154224 2021-06-27 2147 371 RIV Codroipo / Rivolto (UD) ITA eu JN65lw 531 330 219
2154227 2021-06-27 2145 372 ODR Kristiansand / Kjevik / Odderoy NOR eu JO38xd 1122 697 330
2154226 2021-06-27 2144 372 L Prague / Ruzyne / Liboc CZE eu JO70dc 226 140 283
2154242 2021-06-27 2036 382 SBG Salzburg / Oberndorf AUT eu JN67kx 50 380 236 241
2154225 2021-06-25 1956 372 CE Osijek / Cepin HRV eu JN95gm 50 471 293 168
2154239 2021-06-25 1952 380 KN Beograd / Krnjesevci SRB eu KN04bv 572 355 157
2154220 2021-06-25 1947 370 GAC Gacko BIH eu JN93gd 40 733 455 172
2006870 2020-11-22 1740 432 IZD Ohrid / Izdeglavlje MKD eu KN01ji 964 599 162
2006869 2020-11-22 1735 426 MIQ Mike for Ingolstadt DEU eu JN58tn 437 271 255
2006868 2020-11-22 1730 420 SR Uzice / Ponikve SRB eu JN93vv 670 416 163
2006867 2020-11-22 1720 429 B Brno / Turany / Borek CZE eu JN89id 77 48 218
2006866 2020-11-21 2100 434 MV Melun / Villaroche FRA eu JN18ln 1055 655 268
2006865 2020-11-21 2050 430 SN St Yan FRA eu JN26bh 1053 654 254
2006864 2020-11-21 2045 428 CTX Chateauroux / Deols FRA eu JN06vw 50 1190 739 261
2006863 2020-11-21 2040 423 TS Toulouse / Blagnac FRA eu JN03rm 15 1392 865 246
2006862 2020-11-21 1745 438 KO Rijeka / Krk / Kozala HRV eu JN75fi 529 329 205
2006861 2020-11-21 1740 433 CRE Cres HRV eu JN74fv 40 576 358 203
2006860 2020-11-21 1735 426 BC Bacau ROU eu KN36ll 795 494 112
2006859 2020-11-21 1730 424 PIS Zagreb / Pleso / Pisarovina HRV eu JN75wo 468 291 194
2006858 2020-11-20 2310 420 GO Podgorica MNE eu JN92ph 833 518 169
2006857 2020-11-20 2300 436 SME Sarmellek / Balaton HNG eu JN86op 338 210 182
2006856 2020-11-20 2250 425 ERT Erfurt DEU eu JO50kx 483 300 289
2006855 2020-11-20 2245 427 RY Royan / Medis FRA eu IN95no 1436 892 258
2006854 2020-11-20 2238 428 TGM Targu Mures / Vidrasau ROU eu KN26dk 628 390 122
2006853 2020-11-20 2233 437 NP Tomaszow-Mazowiecki / Porter POL eu KO01bn 285 177 41
2006852 2020-11-20 2130 438 B Bratislava / M.R Stefanik / Barka SVK eu JN88od 172 107 184
2006851 2020-11-20 2120 429 LOS Losinj HRV eu JN74fm 40 615 382 202
2006850 2020-11-20 2115 258 N Ostrava / Mosnov / Nada CZE eu JN99br 54 34 84
2006849 2020-11-20 2112 438 PE Poprad / Tatry East SVK eu KN09fb 234 145 106
2006848 2020-11-20 2110 438 K Praha Kbely / Kalda CZE eu JO70gd 209 130 285
2006847 2020-11-20 2108 435 BR Brdjani SRB eu KN03fw 681 423 158
2006845 2020-11-20 2103 432 PK Pardubice / Prvek CZE eu JO70va 119 74 288
2006844 2020-11-20 2102 432 IZD Ohrid / Izdeglavlje MKD eu KN01ji 964 599 162
2006843 2020-11-20 2058 423 FE Odense / Beldringe DNK eu JO55fm 798 496 326
2006842 2020-11-20 2055 425 DNC Mostar BIH eu JN83wd 100 728 453 176
2006841 2020-11-20 2052 425 KE Kosice SVK eu KN08oo 304 189 111
2006840 2020-11-20 2050 426 GBG Gleichenberg for Graz AUT eu JN76vv 100 332 206 201
2006846 2020-11-20 2005 434 KNE Kunovice CZE eu JN89rb 70 43 175
2006839 2020-11-20 1739 423 ZO Nis / Zitoradja SRB eu KN03ue 795 494 153
2006838 2020-11-20 1738 421 MF Halmstad SWE eu JO66jp 831 517 340
2006837 2020-11-20 1735 422 OSJ Osijek HRV eu JN95lk 100 487 303 165
2006836 2020-11-20 1730 255 NS Nis SRB eu KN03vh 785 488 152
1790654 2020-01-30 2150 360 TS Zadonsk RUS eu KO92lj 1533 952 70
1790653 2020-01-30 2148 360 LA Kraljevo SRB eu KN03gu 692 430 158
1790652 2020-01-30 2145 357.5 KG Sarajevo / Butmir / Kobiljaca BIH eu JN93cv 647 402 174
1790651 2020-01-30 2140 355 OBR Beograd / Obrenovac SRB eu KN04bp 50 598 371 158
1790650 2020-01-30 2137 354 MTZ Metz / Nancy-Lorraine FRA eu JN39cg 807 502 270
1790649 2020-01-30 2136 355 MI Maribor SVN eu JN76ul 75 378 235 199
1790648 2020-01-30 2135 352 PSJ Seinajoki FIN eu KP12lp 1480 920 11
1790647 2020-01-30 2133 351 OV Visby SWE eu JO97er 897 557 3
1790646 2020-01-30 2132 351.5 PLA Pula HRV eu JN64vv 2000 597 371 208
1790645 2020-01-30 2130 349 JX Vaxjo / Kronoberg SWE eu JO76jx 829 515 349
1790644 2020-01-30 2129 349.5 SZA Solenzara COR eu JN41qw 25 1060 659 218
1790643 2020-01-30 2128 348 WA Stockholm / Arlanda SWE eu JO89xp 1108 688 1
1790642 2020-01-30 2127 344 MN Menorca BAL eu JM29cu 200 1504 935 228
1790641 2020-01-30 2126 343 KUS Kaunas / Karmelava LTU eu KO24bx 100 745 463 35
1790640 2020-01-30 2125 339 V Kokkola / Kruunupyy FIN eu KP13nq 1594 991 10
1790639 2020-01-30 2124 338 OA Jonkoping SWE eu JO77bt 928 577 347
1790638 2020-01-30 2122 333.5 VOG Voghera (PV) ITA eu JN44lx 822 510 233
1790637 2020-01-30 2120 334 MR Maribor SVN eu JN76vi 49 389 242 198
1790636 2020-01-28 2230 480 OU UNID XUU xx
1523830 2018-12-31 2149 424 RUS Reus ESP eu JN01nd 200 1579 981 239
1523819 2018-12-31 2013 380 ES Istambul / Ataturk TUR as KN40jx 1314 816 133
1523766 2018-12-31 2004 393 RST Rasht IRN as LM47th 2911 1809 105
1521268 2018-12-31 2003 395 TBS Tabas IRN as LM83kp 3676 2284 103
1521316 2018-12-31 1729 370 NK Nizhnekamsk / Begishevo RUS eu LO65bo 2407 1495 60
1523811 2018-12-31 1721 319 VAR Stavanger / Sola / Varhaug NOR eu JO28tp 25 1252 778 327
1523810 2018-12-31 1720 378 RSY Stavanger / Sola / Rennesoy NOR eu JO29td 1294 804 328
1523880 2018-12-31 1604 300 NE Pruszcz Gdanski POL eu JO94if 513 319 9
1523818 2018-12-31 1527 465 SIN Sinop TUR as KN72ma 1606 998 115
1523879 2018-12-31 1501 262 NR Inowroclaw POL eu JO92eu 359 223 10
1521265 2018-12-31 0902 318 PC Papa / Parduc HNG eu JN87sh 264 164 177
1521351 2018-12-30 1604 333 LE Vasteraas / Hasslo SWE eu JO89ip 1108 688 358
1521189 2018-12-30 1516 297 BD Pazardjik / Malak Chardak BUL eu KN22ig 999 621 142
1521287 2018-12-30 1513 297 PEP Prilep MKD eu KN01ri 979 608 159
1523895 2018-12-30 1027 288 MNR Monor for Ferihegy HNG eu JN97qi 298 185 149
1523817 2018-12-29 2047 425 BUK Ankara / Cubuk TUR as KN60nf 1620 1006 124
1523816 2018-12-29 2036 384 GKA Gokceada Havaalani TUR as KN20wf 1244 773 144
1523829 2018-12-29 1956 421 GE Madrid / Grinon ESP eu IN80be 1968 1223 245
1523828 2018-12-29 1943 399 EAG Logrono / Agoncillo ESP eu IN82uk 25 1711 1063 249
1523827 2018-12-29 1935 389 ZRZ Zaragoza ESP eu IN91jr 300 1686 1047 245
1521181 2018-12-29 1904 351 CST Costix for Palma De Mallorca BAL eu JM19kp 65 1595 991 231
1521354 2018-12-29 1856 330 KDL Izmir / Adnan Menderes / Kadifekale TUR as KM38nj 1475 916 144
1521350 2018-12-29 1855 329 WU Umea SWE eu KP03fr 1572 977 5
1523841 2018-12-29 1853 324 AS Kemi / Tornio FIN eu KP25eq 1824 1134 10
1521349 2018-12-29 1848 322 OD Ornskoldsvik SWE eu JP93kk 1531 952 2
1521348 2018-12-29 1827 348 WA Stockholm / Arlanda SWE eu JO89xp 1108 688 1
1521353 2018-12-29 1758 375 GLA Gland for Geneva / Cointrain SUI eu JN36cj 906 563 250
1521239 2018-12-29 1751 388 BR Lyon / Bron FRA eu JN25lo 1033 642 248
1521238 2018-12-29 1744 397 EG Grenoble / St Geoirs FRA eu JN25qi 1020 634 246
1521282 2018-12-29 1711 426 SOR Sorrento (NA) ITA eu JN70en 1041 647 194
1521237 2018-12-29 1709 427 RY Royan / Medis FRA eu IN95no 1436 892 258
1521183 2018-12-29 1647 477 ChA Baranovichi BLR eu KO33ad 713 443 54
1523815 2018-12-29 1641 356 ANK Ankara / Esenboga TUR as KM69jw 1623 1009 126
1521236 2018-12-29 1634 378 LU Le Luc / Le Cannet FRA eu JN33gj 25 1082 673 233
1523809 2018-12-29 1553 401 RBU Roros / Rambu NOR eu JP52sm 1471 914 348
1523803 2018-12-29 1520 397 LU Banja Luka BIH eu JN84px 40 524 325 180
1521281 2018-12-29 1452 400 TEA Teano (CE) ITA eu JN61xh 968 602 197
1521188 2018-12-29 1439 312 BOZ Bozhurishte BUL eu KN12os 890 553 147
1521260 2018-12-28 2107 350 FU Hamburg West DEU eu JO43xo 25 671 417 313
1523840 2018-12-28 2101 374 S Mikkeli FIN eu KP31pp 1464 910 21
1521235 2018-12-28 2043 385 CSC Cannes / Ile de Leirins FRA eu JN33mm 1044 649 232
1521347 2018-12-28 1947 397 LM Borlange / Rommehed / Falun SWE eu JP70tj 1196 743 355
1523839 2018-12-28 1944 398 ESS Kokkola-Pietarsaari /Kruunupyy / Esse FIN eu KP13np 1590 988 10
1521346 2018-12-28 1935 403 NM Mora / Slijan SWE eu JP71fa 1273 791 352
1521345 2018-12-28 1926 403 OJ Jonkoping SWE eu JO77aq 916 569 347
1521234 2018-12-28 1922 404 MRV Merville / Calonne FRA eu JO10iq 1048 651 281
1521344 2018-12-28 1916 416 BCS Baccus SWE eu JP82mn 1432 890 359
1521343 2018-12-28 1915 415 OL Linkoping / Saab SWE eu JO78vj 974 605 354
1521197 2018-12-28 1740 368 RK Copenhagen / Roskilde DNK eu JO55xo 752 467 333
1521259 2018-12-28 1554 330 ABU Altenburg / Nobitz DEU eu JO60gx 25 372 231 294
1521355 2018-12-28 1450 445 ZU Starokonstantinov UKR eu KN39ok 709 441 88
1521290 2018-12-28 1443 256 BSE Baneasa Southeast ROU eu KN34cm 880 547 127
1521233 2018-12-27 2206 359 LOR Lorient / Lann Bihoue FRA eu IN87gs 100 1538 955 270
1521258 2018-12-27 2154 365 LJ Koln / Bonn DEU eu JO30mw 25 746 464 284
1523808 2018-12-27 2151 366 UTH Orland / Uthaug NOR eu JP43sr 1630 1013 346
1521257 2018-12-27 2147 368 BYC Buckeburg DEU eu JO42ng 645 400 299
1523946 2018-12-27 2144 370 OTL Bucuresti / Otopeni ROU eu KN34an 868 539 127
1521232 2018-12-27 2142 369 CM Avignon / Caumont FRA eu JN23kv 25 1147 712 240
1521342 2018-12-27 2140 369 OO Ornskoldsvik SWE eu JP93ni 1523 946 3
1521256 2018-12-27 2137 371 MYN Munster / Osnabruck DEU eu JO32vd 25 725 450 295
1521194 2018-12-27 2136 369 VRS Vrsar HRV eu JN65tf 570 354 211
1521231 2018-12-27 2123 374 BGC Bergerac / Roumaniere FRA eu JN04ht 25 1372 852 253
1521318 2018-12-27 2116 377 KR Krasnodar / Pashkovskiy RUS eu KN95na 1711 1063 99
1521230 2018-12-27 2046 389 PX Perigueux / Bassillac FRA eu JN05ke 25 1334 829 254
1521229 2018-12-27 2026 400 AG Agen / La Garenne FRA eu JN04id 1404 872 250
1521341 2018-12-27 2024 402 LX Eskilstuna / Kjula SWE eu JO89ig 1066 663 357
1521264 2018-12-27 2022 403 KEK Kerkyra / Ioannis Kapodistrias GRC eu JM99wo 15 1138 707 169
1521228 2018-12-27 2021 404 AGO Angouleme / Brie Champniers FRA eu JN05fr 1337 830 257
1521227 2018-12-27 2014 415 TOE Toulouse / Blagnac FRA eu JN03ul 15 1378 856 245
1521225 2018-12-27 2011 418 SAL Sainte Leocadie FRA eu JN12ak 1427 887 241
1521226 2018-12-27 2011 418 MK Calais / Dunkerque FRA eu JO10ax 1096 681 283
1523778 2018-12-27 2000 520 DF Mukhrani GEO as LN21gv 2262 1405 102
1521315 2018-12-27 1919 408 KW Krymsk RUS eu KN94ax 1637 1017 100
1521255 2018-12-27 1914 407 LUP Laupheim DEU eu JN48wf 30 571 355 256
1523826 2018-12-27 1912 404 LRD Lerida ESP eu JN01hn 250 1579 981 241
1521352 2018-12-27 1908 403 LPS Les Eplatures SUI eu JN37jb 833 518 253
1521224 2018-12-27 1907 403 VZ Vichy / Charmeil FRA eu JN16qd 1113 692 254
1521180 2018-12-27 1902 401 PTC Porto Colom for Palma De Mallora BAL eu JM19pk 1590 988 229
1521340 2018-12-27 1900 399 FM Trollhattan / Vanersborg SWE eu JO68di 1019 633 343
1521184 2018-12-27 1857 399.5 ONO Oostende BEL eu JO11lf 25 1033 642 285
1521339 2018-12-27 1856 398 PEO Stockhlom / Skavsta / Peola SWE eu JO88mt 1015 631 358
1521223 2018-12-27 1854 398 LRN Lorquin / Xouaxange FRA eu JN38lq 764 475 265
1523768 2018-12-27 1705 443 AL UNID XUE xx 4500 2796
1523825 2018-12-27 1645 395 B Bilbao ESP eu IN83li 1706 1060 253
1521222 2018-12-27 1638 404 CNE Caen / Carpiquet FRA eu IN99uc 25 1277 794 273
1521254 2018-12-27 1637 405 GRW Grafenwohr DEU eu JN59xq 25 390 242 272
1521280 2018-12-27 1634 405 VIE Vieste (FG) ITA eu JN81av 872 542 187
1521325 2018-12-27 1630 407 CTF Catania (CT) SCY eu JM77mg 1393 866 188
1521338 2018-12-27 1629 409 SG Satenas / Tune SWE eu JO68ij 1014 630 344
1521321 2018-12-27 1610 420 BT Batajnica SRB eu KN04cx 565 351 156
1521196 2018-12-27 1602 438 K Praha Kbely / Kalda CZE eu JO70gd 209 130 285
1523878 2018-12-27 1557 474.5 SA Darlowo POL eu JO84ek 533 331 353
1521314 2018-12-27 1554 520 YuR Shaykovka RUS eu KO74ef 1265 786 60
1523877 2018-12-27 1547 444 NRD Inowroclaw POL eu JO92eu 359 223 10
1523928 2018-12-27 1546 445 WS Starokonstantinov UKR eu KN39pr 713 443 85
1521313 2018-12-27 1539 312.5 DB Doobskiy / Mys Doob RUS eu KN84wp 1642 1020 102
1523927 2018-12-27 1539 312.5 AT Mys Aytodorskiy UKR eu KN74ag 1396 868 109
1523925 2018-12-27 1535 309.5 TR Mys Tarkhankutskiy Lt. UKR eu KN65gi 1234 767 107
1523926 2018-12-27 1535 309.5 SW Mys Khersones Lt. UKR eu KN64qn 1334 829 109
1521312 2018-12-27 1507 900 NE Nerl RUS eu KO97aa 1586 986 51
1523924 2018-12-27 1505 825 KE Kiev / Boryspil UKR eu KO50kg 966 600 80
1521221 2018-12-26 2335 323 AB Albi / Le Sequestre FRA eu JN13av 1330 826 246
1521337 2018-12-26 2333 322 OU Stockholm / Bromma SWE eu JO99ah 1071 665 2
1521220 2018-12-26 2331 320 VE Valence / Chabeuil FRA eu JN24lu 15 1078 670 244
1523945 2018-12-26 2321 266 M Baia Mare ROU eu KN17rp 501 311 114
1521311 2018-12-26 2318 315 RG Tunosha RUS eu LO07cn 1729 1075 50
1521310 2018-12-26 2313 642 KN Moscow / Kostino RUS eu KO86uh 1539 956 53
1521219 2018-12-26 2312 309 DO Dole / Tavaux FRA eu JN26px 941 585 255
1521309 2018-12-26 2306 975 GD Maloye-Skuratovo RUS eu KO83mn 1419 882 64
1521308 2018-12-26 2305 960 RP Sosnovkoye RUS eu LO15nt 1849 1149 58
1521182 2018-12-26 2217 524 UU Vitebsk / Vostochny BLR eu KO55fd 1072 666 50
1523824 2018-12-26 2211 412 GRN Gerona ESP eu JN12ja 250 1411 877 238
1523944 2018-12-26 2207 408 TSR Timisoara / Giarmata ROU eu KN05ol 549 341 147
1521253 2018-12-26 2207 406 HON Holzdorf DEU eu JO61ns 25 378 235 309
1521178 2018-12-26 2206 407 BCR Bechar ALG af IM81vq 2578 1602 226
1523785 2018-12-26 2205 353 BNA Beni Amrane ALG af JM16tp 100 1823 1133 222
1521279 2018-12-26 2203 354 FE Fiumicino (RM) ITA eu JN61et 957 595 205
1521252 2018-12-26 2203 352 LAA Niederrhein DEU eu JO31co 45 815 506 289
1521251 2018-12-26 2202 354 PAD Paderborn / Lippstadt DEU eu JO41ho 25 652 405 292
1521193 2018-12-26 2158 289 RI Rijeka / Krk HRV eu JN75hd 546 339 203
1521218 2018-12-26 2158 395 FC Figeac / Livernon FRA eu JN04vq 1299 807 250
1521179 2018-12-26 2156 394 IZA Ibiza BAL eu JM08rv 200 1738 1080 232
1521250 2018-12-26 2156 394 LYE Lubeck / Blanckensee DEU eu JO53it 648 403 317
1523784 2018-12-26 2133 416 MAR Algiers / Houari Boumedienne ALG af JM16jq 1861 1156 224
1521195 2018-12-26 2129 416 V Vodochody / Pan Brezany CZE eu JO70ff 217 135 287
1521249 2018-12-26 2125 417 LI Dusseldorf DEU eu JO31ki 25 764 475 288
1521217 2018-12-26 2120 419 EMT Epinal / Mirecourt FRA eu JN38ch 828 514 263
1523814 2018-12-26 2118 422 CNK Canakkale TUR as KN30fd 1277 794 142
1521307 2018-12-26 2114 1055 IN Sukhotino RUS eu KO84po 1458 906 60
1521216 2018-12-26 2114 423 TS Toulouse / Blagnac FRA eu JN03rm 15 1392 865 246
1523783 2018-12-26 2111 423 BJA Bejaia / Soummam ALG af JM26mq 40 1753 1089 219
1521278 2018-12-26 2105 425 MMP Gallarate / Malpensa (VA) ITA eu JN45ip 789 490 238
1521248 2018-12-26 2101 425 ERT Erfurt DEU eu JO50kx 483 300 289
1521336 2018-12-26 2100 427 LUE Kramfors / Lunde SWE eu JP82vv 1469 913 0
1521247 2018-12-26 2057 426 MIQ Mike for Ingolstadt DEU eu JN58tn 437 271 255
1521246 2018-12-26 2055 427 BRU Braunschweig DEU eu JO52hh 555 345 304
1521215 2018-12-26 2051 428 CTX Chateauroux / Deols FRA eu JN06vw 50 1190 739 261
1521245 2018-12-26 2037 429 OBI Oberpfaffenhofen DEU eu JN58pb 480 298 250
1521244 2018-12-26 2036 431 KBA Karlsruhe / Baden Baden DEU eu JN48bt 678 421 265
1521306 2018-12-26 2031 430 AJ Staritza RUS eu KO76lm 1392 865 50
1523790 2018-12-26 2027 432 ZAR Zwara (= 6SH) LBY af JM62aw 1914 1189 195
1521305 2018-12-26 2018 435 ER Yegorlykskaya RUS eu LN06io 1757 1092 92
1521356 2018-12-26 2008 470 BK UNID XUF xx
1523789 2018-12-26 2007 470 WF Wafa LBY af JL58bv 2392 1486 197
1523813 2018-12-26 2003 480 CLD Aydin / Cildir TUR as KM37wt 1563 971 143
1523812 2018-12-26 1957 487 BEY Beypazari TUR as KN50xd 1558 968 127
1521304 2018-12-26 1953 493 RW Maryino RUS eu KO95cq 1547 961 56
1523923 2018-12-26 1949 509 CR Chernivtsi UKR eu KN38af 653 406 101
1521277 2018-12-26 1914 324 PTC Salerno / Pontecagnano ITA eu JN70ko 1029 639 191
1523894 2018-12-26 1901 295 DC Debrecen HNG eu KN07sk 396 246 127
1521276 2018-12-26 1857 301.5 TRE Treviso (TV) ITA eu JN65bo 25 600 373 222
1521335 2018-12-26 1856 300 SC Linkoping / Malmen And Saab SWE eu JO78sk 980 609 353
1521303 2018-12-26 1852 307 LA Lazarevskoye RUS eu KN93pw 1778 1105 102
1523755 2018-12-26 1850 308 G Minsk 2 BLR eu KO43au 867 538 53
1523922 2018-12-26 1849 310 NO Kiev / Boryspil UKR eu KO50kg 966 600 80
1521243 2018-12-26 1846 309 MW Berlin / Schonefeld DEU eu JO62qi 408 253 318
1521242 2018-12-26 1845 311 CEL Celle DEU eu JO52ao 25 605 376 305
1521241 2018-12-26 1843 315 PAH Parchim DEU eu JO53tj 572 356 318
1521320 2018-12-26 1839 316 CAL Cagliari / Elmas SAR eu JM49mf 1336 830 212
1523943 2018-12-26 1838 318 OTR Bucuresti / Otopeni ROU eu KN34co 874 543 126
1523788 2018-12-26 1833 317 KFR Kufra LBY af KL14pf 2877 1788 167
1521240 2018-12-26 1827 318 AGB Augsburg DEU eu JN58lk 25 488 303 255
1521214 2018-12-26 1825 320 LSU Limoges / Bellegarde FRA eu JN05ns 1288 800 256
1521191 2018-12-26 1824 320 VL Pula / Valtura HRV eu JN64wv 594 369 207
1524051 2018-12-26 1811 320 HA Hannover / East DEU eu JO42vl 25 613 381 303
1521302 2018-12-26 1811 320 DM Moscow / Domodedovo RUS eu KO85wk 1519 944 57
1523866 2018-12-26 1810 320 RUM Innsbruck / Rum AUT eu JN57rg 512 318 240
1524050 2018-12-26 1806 321 GL Berlin / Tegel / East DEU eu JO62rn 50 420 261 320
1524049 2018-12-26 1804 323 GT Hamburg / North DEU eu JO43xr 25 680 422 314
1521301 2018-12-26 1803 324 RF Ladozhskaya RUS eu KN95xg 1759 1093 97
1521334 2018-12-26 1801 325 PG Trollhattan / Vanersborg SWE eu JO68fg 1006 625 343
1523893 2018-12-26 1759 326 C Debrecen HNG eu KN07tl 397 247 126
1523965 2018-12-26 1757 328 SMR Sremska Mitrovica SRB eu JN94tx 550 342 161
1521275 2018-12-26 1755 330 SRN Saronno (VA) ITA eu JN45mp 768 477 237
1521288 2018-12-26 1750 332 RO Tivat MNE eu JN92gk 811 504 173
1524048 2018-12-26 1733 341 ALG Memmingen / Allgau DEU eu JN57dx 552 343 252
1521274 2018-12-26 1727 342 PES Pescara ITA eu JN72ck 842 523 198
1523796 2018-12-26 1718 420 GO Podgorica MNE eu JN92ph 833 518 169
1524047 2018-12-26 1717 340 ZIG Leipzig DEU eu JO61dk 408 254 300
1521273 2018-12-26 1712 345 TZO Trezzo sull'Adda (MI) ITA eu JN45sn 744 462 234
1521272 2018-12-26 1711 343 GRA Grazzanise (CE) ITA eu JN71bb 992 616 196
1521190 2018-12-26 1709 344 VAR Varazdin HRV eu JN86eh 383 238 191
1523795 2018-12-26 1707 345 TAZ Tivat MNE eu JN92jg 50 832 517 171
1521271 2018-12-26 1701 351 POM Pomigliano d'Arco (NA) ITA eu JN70ew 50 1001 622 194
1523942 2018-12-26 1659 349 OPE Bucuresti / Otopeni ROU eu KN34cn 877 545 127
1521270 2018-12-26 1643 364 MAL Gallarate / Malpensa (VA) ITA eu JN45jn 789 490 237
1524046 2018-12-26 1632 369 MNE Munchen DEU eu JN58ui 25 439 273 252
1524045 2018-12-26 1626 374 FS Dresden DEU eu JO61we 299 186 305
1523941 2018-12-26 1616 373 D Tirgu Mures ROU eu KN26el 630 392 121
1521324 2018-12-26 1616 373 LPD Lampedusa (AG) SCY eu JM65hm 1622 1008 195
1521269 2018-12-26 1607 379 PIS Pisa (PI) ITA eu JN53do 25 865 538 221
1521292 2018-12-26 1602 384 IAS Iasi ROU eu KN37td 807 501 106
1521192 2018-12-26 1600 378 TRI Split / Trogir HRV eu JN83cl 50 696 432 187
1523802 2018-12-26 1600 383 NA Banja Luka BIH eu JN84pw 40 528 328 180
1523964 2018-12-26 1558 387 AD Kraljevo SRB eu KN03hs 703 437 158
1521284 2018-12-26 1557 385 AVN Vilnius LTU eu KO24pp 771 479 41
1521319 2018-12-26 1545 402 CAR Villasimius / Capo Carbonara (CA) SAR eu JM49sc 40 1329 826 210
1523892 2018-12-26 1543 400 BC Bekescsaba HNG eu KN06nq 434 270 138
1523767 2018-12-26 1535 458 LP Chernyakhovsk KAL eu KO04vo 624 388 27
1523770 2018-12-26 1517 407 PN Palanga LTU eu KO05nx 743 462 18
1523865 2018-12-26 1514 420 INN Innsbruck AUT eu JN57qf 40 520 323 240
1521300 2018-12-26 1510 430 MB Chemukha RUS eu LO15vo 1886 1172 59
1521299 2018-12-26 1455 470 QL Taganrog RUS eu KN97kg 1602 995 91
1521298 2018-12-26 1448 405 UM Ivanovskoye RUS eu KO85ku 1473 915 54
1523853 2018-12-26 1441 425 KE Kosice SVK eu KN08oo 304 189 111
1521289 2018-12-26 1434 494 NWO Oksywie POL eu JO94fo 552 343 7
1521297 2018-12-26 1426 730 AL Kaliningrad / Chkalovsk KAL eu KO04es 601 373 18
1521296 2018-12-26 1424 687 WU Yeysk RUS eu KN96cq 1574 978 94
1523876 2018-12-26 1311 322 NG Powidz POL eu JO82wi 299 186 6
1523762 2018-12-25 2345 337 MY Myggenaes FRO eu IP62ec 2058 1279 321
1523764 2018-12-25 2343 372 OZN Prins Christian Sund / Kitaa GRL na GP80kb 3885 2414 310
1521213 2018-12-25 2341 318 BE Bordeaux / Merignac FRA eu IN94tu 25 1439 894 254
1521323 2018-12-25 2339 317.5 TRP Marsala (TP) SCY eu JM67fv 25 1368 850 198
1521212 2018-12-25 2338 315 HOL Villacoublay / Velizy FRA eu JN08vr 25 1135 705 270
1523985 2018-12-25 2336 316 TNJ Tounj HRV eu JN75qg 514 319 197
1524028 2018-12-25 2335 312 TAQ Tarquinia (VT) ITA eu JN52uf 937 582 209
1523794 2018-12-25 2333 312 DAN Danilvograd For Podgorica MNE eu JN92nn 804 499 169
1523771 2018-12-25 2331 307 DIK Diekirch LUX eu JN39bu 807 502 275
1521211 2018-12-25 2329 302 ROM Rodez / Marcillac FRA eu JN14hi 1263 784 247
1523787 2018-12-25 2326 300 OJ Essider LBY af JM90ep 2119 1317 177
1521329 2018-12-25 2325 296 MG Ljubljana SVN eu JN76ge 443 275 209
1524044 2018-12-25 2325 292 NKR Neckar DEU eu JN49ii 25 626 389 269
1523753 2018-12-25 2324 293 ARL Arlit NGR af JK38qs 3551 2207 198
1523763 2018-12-25 2323 291 KZN Kozani / Filippos GRC eu KN00wg 1105 686 159
1521210 2018-12-25 2322 291 WS Grenoble / St Geoirs FRA eu JN25ni 1037 644 246
1524027 2018-12-25 2319 285 URB Roma / Urbe (RM) ITA eu JN61fw 942 585 205
1523940 2018-12-25 2317 267.5 OPW Bucuresti / Otopeni ROU eu KN24xn 863 536 128
1521209 2018-12-25 2314 321 ABY Albert / Bray FRA eu JN19jx 1045 649 277
1521208 2018-12-25 2314 322 RL La Rochelle / Ile De Re FRA eu IN96ke 1428 887 261
1523984 2018-12-25 2312 325 VG Zagreb / Pleso / Velika Gorica HRV eu JN85ar 451 280 193
1524026 2018-12-25 2310 325 RCA Reggio di Calabria (RC) ITA eu JM78ta 110 1305 811 186
1524025 2018-12-25 2309 327 OST Roma / Ostia (RM) ITA eu JN61ct 962 598 206
1521207 2018-12-25 2306 330 MB Montbeliard / Courcelles FRA eu JN37lm 802 498 256
1523963 2018-12-25 2303 330 ML Kraljevo SRB eu KN03hs 703 437 158
1521206 2018-12-25 2302 331 TUR Tours / Val De Loire FRA eu JN07jn 15 1239 770 265
1521205 2018-12-25 2300 332 TLF Toulouse / Francazal FRA eu JN03oo 1403 872 247
1524024 2018-12-25 2300 331 GRT Grottaglie (TA) ITA eu JN80rk 25 1029 639 179
1523921 2018-12-25 2256 335 DR Dnipropetrovsk UKR eu KN78oi 1306 811 89
1523823 2018-12-25 2255 335 TON Torralba de Aragon ESP eu IN91rw 300 1628 1011 244
1523793 2018-12-25 2253 335 POD Podgorica MNE eu JN92pj 824 512 168
1524043 2018-12-25 2252 338 MNW Munchen DEU eu JN58wi 25 427 266 251
1521198 2018-12-25 2248 339 BIA Bournemouth ENG eu IO90bs 40 1371 852 282
1523781 2018-12-25 2225 341 IS Ajaccio / Campo del Oro COR eu JN41hv 50 1099 683 221
1523838 2018-12-25 2221 346 MI Mikkeli / Korpikoski FIN eu KP31mr 1466 911 20
1521204 2018-12-25 2220 346 LHO Le Havre / Octeville FRA eu JN09co 1233 766 276
1521203 2018-12-25 2218 347 CVT Chalons / Vatry FRA eu JN28ds 954 593 268
1521202 2018-12-25 2217 348 CL Cahors / Lalbenque FRA eu JN04rj 1338 832 249
1524023 2018-12-25 2216 350 BLA Cerrione (BI) ITA eu JN45bl 836 519 239
1523983 2018-12-25 2215 348 ZK Zadar HRV eu JN74qc 639 397 194
1523760 2018-12-25 2209 352 NT Newcastle ENG eu IO95eb 90 1415 879 302
1524075 2018-12-25 2207 353 BN Basle / Mulhouse / Habsheim FRA eu JN37rp 762 474 256
1524074 2018-12-25 2206 354 NG Nimes / Garons FRA eu JN23eu 25 1181 734 241
1523775 2018-12-25 2203 355.5 PAL Palermo (PA) SCY eu JM68oa 1339 832 195
1523822 2018-12-25 2200 356 SGO Sagunto ESP eu IM99vq 300 1772 1101 237
1524073 2018-12-25 2157 358 RNN Roanne / Renaison FRA eu JN26ac 1069 664 253
1524042 2018-12-25 2157 358 MSE Munchen DEU eu JN58th 25 446 277 252
1523756 2018-12-25 2153 360.5 MAK Mackel for Brussels Ntl BEL eu JO10rx 997 619 283
1523962 2018-12-25 2152 360 LA Kraljevo SRB eu KN03gu 692 430 158
1524072 2018-12-25 2151 361 NB Bordeaux / Merignac FRA eu IN95rd 25 1435 892 256
1523758 2018-12-25 2147 365 VR Gran Canaria / Las Palmas CNR af IL27gu 200 3690 2293 241
1523820 2018-12-25 2145 363 CIG Izmir / Cigli / Kaklic TUR as KM38mm 25 1459 907 144
1523780 2018-12-25 2144 365 RB Ajaccio / Campo del Oro COR eu JN41jw 1087 675 220
1524071 2018-12-25 2142 367 VAT Chalon / Vatry FRA eu JN28at 971 604 269
1521285 2018-12-25 2139 368.5 ELU Luxembourg-Berg LUX eu JN39eq 15 791 491 274
1524070 2018-12-25 2137 370 BSV Besancon / La Veze FRA eu JN37cg 865 537 256
1524022 2018-12-25 2135 371 LEV Savigliano / Levaldigi (CN) ITA eu JN34tn 931 578 235
1524069 2018-12-25 2134 372 PY Le Puy / Loudes FRA eu JN15va 1145 711 248
1524068 2018-12-25 2132 373 LCT Le Luc / Le Cannet FRA eu JN33ej 1092 679 234
1521333 2018-12-25 2128 375 KD Kristanstad / Everod SWE eu JO75av 726 451 343
1523961 2018-12-25 2052 377 BLC Blace SRB eu KN03qf 780 485 155
1523939 2018-12-25 2049 378 TA Timisoara / Giarmata ROU eu KN05ou 513 319 144
1523821 2018-12-25 2045 380 VNV Vilanova i la Geltru ESP eu JN01uf 1537 955 238
1524067 2018-12-25 2042 379 EB St Etienne / Boutheon FRA eu JN25dp 1076 668 250
1523807 2018-12-25 2040 381 RG Rygge / Tune NOR eu JO59mh 1144 711 341
1524066 2018-12-25 2036 383 MAR Marseille / Provence FRA eu JN23nl 25 1161 721 238
1523765 2018-12-25 2035 383.5 GUL Gulpen HOL eu JO20wt 15 826 513 283
1521332 2018-12-25 2034 384 TY Torsby / Fryklanda SWE eu JP60mc 1190 740 348
1524065 2018-12-25 2034 384 AT Annecy / Meythet FRA eu JN35au 947 588 247
1523779 2018-12-25 2032 387 CT Ajaccio / Campo Del Oro COR eu JN41it 1102 685 220
1523837 2018-12-25 2030 388 KRU Kokkola-Pietarsaari / Kruunupyy FIN eu KP13ot 1609 1000 10
1521358 2018-12-25 2028 388.5 CDF Cardiff WLS eu IO81hj 10 1473 915 285
1523786 2018-12-25 2024 390 OV Nafoora M4 LBY af KL09sf 2302 1430 169
1524064 2018-12-25 2022 391 BV Beauvais / Tille FRA eu JN19al 20 1104 686 274
1524006 2018-12-25 2019 394 NB Stockholm / Bromma SWE eu JO89vj 1080 671 1
1524063 2018-12-25 2018 395 OB Marseille / Provence FRA eu JN23tf 25 1149 714 235
1523782 2018-12-25 2016 397 CHE Cherchell ALG af JM16co 40 1898 1179 225
1521267 2018-12-25 2012 355 ARB Ardabil IRN as LM48eh 2756 1713 105
1523891 2018-12-25 1942 493 P Papa HNG eu JN87si 260 161 177
1521295 2018-12-25 1938 485 CW Krasnaya Gorbatka RUS eu LO05uu 1763 1095 57
1524041 2018-12-25 1935 468 FTZ Fritzlar DEU eu JO41pc 25 594 369 288
1523890 2018-12-25 1930 436 SME Sarmellek / Balaton HNG eu JN86op 338 210 182
1524062 2018-12-25 1927 434 MV Melun / Villaroche FRA eu JN18ln 1055 655 268
1521266 2018-12-25 1926 433 VNS Castor UGS XOE iw JN00ij 1662 1032 237
1524061 2018-12-25 1919 428 MUS Nice / Cote d'Azur FRA eu JN33hj 40 1078 670 233
1523920 2018-12-25 1916 425 PI Pii UKR eu KN59nu 986 613 83
1523759 2018-12-25 1914 423 FE Odense / Beldringe DNK eu JO55fm 798 496 326
1524060 2018-12-25 1914 424 PHG Phalsbourg / Bourscheid FRA eu JN38os 745 463 266
1524021 2018-12-25 1913 421 FN Fiumicino (RM) ITA eu JN61cv 954 593 206
1524005 2018-12-25 1907 421 BL Borlange / Rommehed / Falun SWE eu JP70ql 1206 750 354
1524004 2018-12-25 1906 421 MF Halmstad SWE eu JO66jp 831 517 340
1523938 2018-12-25 1905 418 ORA Oradea ROU eu KN07xc 444 276 128
1524003 2018-12-25 1903 419 RD Vasteras / Hasslo SWE eu JO89hm 1094 680 357
1521322 2018-12-25 1903 420 SR Uzice / Ponikve SRB eu JN93vv 670 416 163
1524059 2018-12-25 1901 417 AX Auxerre / Branches FRA eu JN17sw 1030 640 264
1524020 2018-12-25 1900 417 VIC Vicenza (VI) ITA eu JN55up 25 618 384 225
1524002 2018-12-25 1900 417 AH Angelholm / Barkakra SWE eu JO66kg 791 492 339
1521294 2018-12-25 1858 415 DR Skurygino RUS eu KO85qf 1482 921 57
1524040 2018-12-25 1856 415 RTB Nurnberg / Rothenbach DEU eu JN59pl